Time;durP1;ratioP1;P1;durP2;ratioP2;P2;SDS_P1;SDS_P2;PMS_P1;PMS_P2;Temp;Humidity;BMP_temperature;BMP_pressure;BME280_temperature;BME280_humidity;BME280_pressure;Samples;Min_cycle;Max_cycle;Signal;HPM_P1;HPM_P2
2022/03/21 00:00:27;;;;;;;34.00;25.63;;;8.20;99.90;;;;;;6210129;23;20071;-77
2022/03/21 00:02:53;;;;;;;32.85;26.20;;;8.10;99.90;;;;;;6211533;23;20020;-77
2022/03/21 00:05:19;;;;;;;33.15;26.95;;;8.10;99.90;;;;;;6212025;23;20017;-77
2022/03/21 00:07:45;;;;;;;32.17;25.63;;;8.10;99.90;;;;;;6210092;23;20039;-76
2022/03/21 00:10:11;;;;;;;30.77;27.13;;;8.10;99.90;;;;;;6212586;23;20799;-77
2022/03/21 00:12:39;;;;;;;31.70;24.73;;;8.10;99.90;;;;;;6211058;23;20075;-76
2022/03/21 00:15:06;;;;;;;32.78;25.25;;;8.10;99.90;;;;;;6182471;23;20100;-76
2022/03/21 00:17:33;;;;;;;32.90;25.35;;;8.10;99.90;;;;;;6211154;23;20012;-77
2022/03/21 00:19:59;;;;;;;35.00;25.98;;;8.10;99.90;;;;;;6210015;23;20437;-76
2022/03/21 00:22:25;;;;;;;29.15;24.45;;;8.10;99.90;;;;;;6211735;23;20047;-77
2022/03/21 00:24:53;;;;;;;31.10;24.90;;;8.10;99.90;;;;;;6184513;23;20025;-76
2022/03/21 00:27:19;;;;;;;29.15;24.77;;;8.10;99.90;;;;;;6212333;23;20016;-77
2022/03/21 00:29:44;;;;;;;32.90;25.70;;;8.10;99.90;;;;;;6183811;23;20110;-77
2022/03/21 00:32:18;;;;;;;31.38;25.17;;;8.00;99.90;;;;;;6212220;23;20012;-77
2022/03/21 00:34:51;;;;;;;31.73;26.23;;;8.00;99.90;;;;;;6211615;23;20071;-76
2022/03/21 00:37:17;;;;;;;34.67;26.65;;;8.00;99.90;;;;;;6212006;23;20019;-77
2022/03/21 00:39:43;;;;;;;34.92;27.02;;;8.00;99.90;;;;;;6210082;23;20024;-75
2022/03/21 00:42:10;;;;;;;34.13;27.00;;;8.00;99.90;;;;;;6211885;23;20020;-77
2022/03/21 00:44:37;;;;;;;34.50;26.83;;;8.00;99.90;;;;;;6183308;23;20039;-77
2022/03/21 00:47:03;;;;;;;31.10;26.20;;;8.00;99.90;;;;;;6211176;23;20043;-77
2022/03/21 00:49:30;;;;;;;32.42;26.25;;;8.00;99.90;;;;;;6184393;23;20055;-77
2022/03/21 00:51:56;;;;;;;32.25;25.92;;;8.00;99.90;;;;;;6159740;23;20078;-77
2022/03/21 00:54:21;;;;;;;31.60;26.20;;;7.90;99.90;;;;;;6211470;23;20021;-76
2022/03/21 00:56:47;;;;;;;33.17;26.42;;;7.90;99.90;;;;;;6209483;23;20020;-77
2022/03/21 00:59:13;;;;;;;32.25;26.15;;;7.90;99.90;;;;;;6183769;23;20096;-77
2022/03/21 01:01:38;;;;;;;34.95;26.92;;;7.90;99.90;;;;;;6211235;23;20024;-76
2022/03/21 01:04:04;;;;;;;36.38;28.42;;;7.90;99.90;;;;;;6209660;23;20088;-76
2022/03/21 01:06:29;;;;;;;33.05;27.10;;;7.90;99.90;;;;;;6210824;23;20056;-77
2022/03/21 01:08:55;;;;;;;33.78;29.02;;;7.90;99.90;;;;;;6210774;23;20016;-78
2022/03/21 01:11:22;;;;;;;33.25;26.95;;;7.90;99.90;;;;;;6211214;23;20078;-78
2022/03/21 01:13:49;;;;;;;34.17;27.67;;;7.90;99.90;;;;;;6210426;23;20055;-78
2022/03/21 01:16:15;;;;;;;33.45;27.30;;;7.90;99.90;;;;;;6211007;23;20016;-77
2022/03/21 01:18:47;;;;;;;37.15;28.42;;;7.90;99.90;;;;;;6210920;23;20137;-77
2022/03/21 01:21:13;;;;;;;35.47;27.85;;;7.90;99.90;;;;;;6183652;23;20102;-77
2022/03/21 01:23:39;;;;;;;31.63;25.92;;;7.90;99.90;;;;;;6211888;23;20452;-77
2022/03/21 01:26:05;;;;;;;33.20;26.65;;;7.90;99.90;;;;;;6182835;23;20348;-77
2022/03/21 01:28:31;;;;;;;32.40;25.55;;;7.80;99.90;;;;;;6210687;23;20013;-77
2022/03/21 01:30:56;;;;;;;32.58;24.55;;;7.80;99.90;;;;;;6210186;23;20024;-77
2022/03/21 01:33:22;;;;;;;31.85;25.55;;;7.80;99.90;;;;;;6209120;23;20463;-77
2022/03/21 01:35:48;;;;;;;30.05;24.73;;;7.80;99.90;;;;;;6183114;23;20020;-78
2022/03/21 01:38:14;;;;;;;30.10;24.73;;;7.80;99.90;;;;;;6210658;23;20009;-76
2022/03/21 01:40:39;;;;;;;30.42;24.83;;;7.80;99.90;;;;;;6184428;23;20095;-77
2022/03/21 01:43:11;;;;;;;31.17;24.73;;;7.80;99.90;;;;;;6213445;23;20020;-77
2022/03/21 01:45:37;;;;;;;30.63;24.58;;;7.80;99.90;;;;;;6211664;23;20016;-76
2022/03/21 01:48:04;;;;;;;33.20;24.42;;;7.80;99.90;;;;;;6211459;23;20655;-77
2022/03/21 01:50:30;;;;;;;32.97;25.17;;;7.80;99.90;;;;;;6211108;23;20039;-77
2022/03/21 01:55:43;;;;;;;31.05;25.77;;;7.80;99.90;;;;;;6210704;23;20063;-77
2022/03/21 01:55:44;;;;;;;31.73;25.67;;;7.70;99.90;;;;;;6212257;23;20032;-76
2022/03/21 01:58:15;;;;;;;31.60;26.67;;;7.70;99.90;;;;;;6211471;23;20029;-77
2022/03/21 02:00:45;;;;;;;35.75;27.48;;;7.80;99.90;;;;;;6211361;23;20043;-77
2022/03/21 02:03:12;;;;;;;30.58;25.95;;;7.70;99.90;;;;;;6212659;23;20341;-77
2022/03/21 02:05:39;;;;;;;33.88;26.98;;;7.70;99.90;;;;;;6211933;23;20013;-77
2022/03/21 02:08:05;;;;;;;33.28;26.02;;;7.80;99.90;;;;;;6209622;23;20017;-77
2022/03/21 02:10:31;;;;;;;33.63;27.20;;;7.70;99.90;;;;;;6186120;23;20074;-78
2022/03/21 02:12:56;;;;;;;33.22;26.02;;;7.70;99.90;;;;;;6211110;23;20020;-77
2022/03/21 02:15:22;;;;;;;34.42;26.83;;;7.70;99.90;;;;;;6183842;23;20400;-77
2022/03/21 02:17:54;;;;;;;34.28;26.30;;;7.70;99.90;;;;;;6211198;23;20017;-78
2022/03/21 02:20:22;;;;;;;32.15;25.65;;;7.70;99.90;;;;;;6186134;23;20044;-77
2022/03/21 02:23:08;;;;;;;;;;;7.70;99.90;;;;;;6209262;23;20017;-78
2022/03/21 02:25:43;;;;;;;32.22;27.08;;;7.70;99.90;;;;;;6212269;23;19916;-77
2022/03/21 02:28:11;;;;;;;35.38;27.92;;;7.70;99.90;;;;;;6209677;23;20016;-77
2022/03/21 02:30:39;;;;;;;31.27;26.77;;;7.70;99.90;;;;;;6185352;23;20020;-77
2022/03/21 02:33:05;;;;;;;;;;;7.70;99.90;;;;;;6211657;23;20024;-77
2022/03/21 02:35:31;;;;;;;32.30;26.67;;;7.70;99.90;;;;;;6184060;23;19920;-77
2022/03/21 02:37:56;;;;;;;31.88;26.73;;;7.70;99.90;;;;;;6210810;23;20023;-78
2022/03/21 02:40:24;;;;;;;31.02;25.70;;;7.70;99.90;;;;;;6185201;23;20448;-77
2022/03/21 02:42:50;;;;;;;30.98;25.52;;;7.70;99.90;;;;;;6183069;23;20016;-78
2022/03/21 02:45:16;;;;;;;31.27;24.70;;;7.70;99.90;;;;;;6211702;23;20023;-77
2022/03/21 02:47:41;;;;;;;34.05;26.05;;;7.70;99.90;;;;;;6210931;23;20024;-77
2022/03/21 02:50:11;;;;;;;29.52;23.45;;;7.60;99.90;;;;;;6211211;23;20890;-78
2022/03/21 02:52:39;;;;;;;27.50;22.85;;;7.60;99.90;;;;;;6184066;23;20445;-77
2022/03/21 02:55:05;;;;;;;30.15;23.45;;;7.60;99.90;;;;;;6211411;23;20020;-77
2022/03/21 02:57:32;;;;;;;30.25;23.45;;;7.60;99.90;;;;;;6183302;23;20024;-77
2022/03/21 02:59:59;;;;;;;29.52;23.65;;;7.60;99.90;;;;;;6184395;23;20086;-78
2022/03/21 03:02:25;;;;;;;27.63;22.23;;;7.60;99.90;;;;;;6210487;23;20025;-78
2022/03/21 03:04:51;;;;;;;26.92;21.85;;;7.60;99.90;;;;;;6209289;23;20012;-77
2022/03/21 03:07:16;;;;;;;27.75;21.35;;;7.50;99.90;;;;;;6211813;23;20088;-78
2022/03/21 03:09:42;;;;;;;28.88;21.63;;;7.50;99.90;;;;;;6212114;23;20034;-78
2022/03/21 03:12:08;;;;;;;28.35;21.77;;;7.50;99.90;;;;;;6210724;23;20048;-78
2022/03/21 03:14:34;;;;;;;28.85;22.17;;;7.50;99.90;;;;;;6211753;23;20016;-77
2022/03/21 03:17:01;;;;;;;28.92;22.05;;;7.50;99.90;;;;;;6210224;23;20020;-77
2022/03/21 03:19:27;;;;;;;25.20;21.67;;;7.40;99.90;;;;;;6184230;23;20016;-77
2022/03/21 03:21:54;;;;;;;25.35;21.08;;;7.40;99.90;;;;;;6210662;23;20016;-78
2022/03/21 03:24:21;;;;;;;29.63;21.67;;;7.40;99.90;;;;;;6209781;23;20013;-77
2022/03/21 03:26:48;;;;;;;27.92;21.70;;;7.40;99.90;;;;;;6184861;23;20425;-78
2022/03/21 03:29:14;;;;;;;30.80;20.67;;;7.40;99.90;;;;;;6210615;23;20017;-77
2022/03/21 03:31:40;;;;;;;26.98;21.38;;;7.30;99.90;;;;;;6212127;23;20320;-77
2022/03/21 03:34:06;;;;;;;26.60;20.75;;;7.30;99.90;;;;;;6213727;23;20005;-77
2022/03/21 03:36:32;;;;;;;29.27;22.08;;;7.20;99.90;;;;;;6210559;23;20017;-78
2022/03/21 03:38:58;;;;;;;26.58;22.15;;;7.20;99.90;;;;;;6210261;23;20111;-77
2022/03/21 03:41:24;;;;;;;29.00;21.10;;;7.20;99.90;;;;;;6211712;23;20020;-77
2022/03/21 03:43:50;;;;;;;28.85;22.05;;;7.10;99.90;;;;;;6209838;23;20083;-77
2022/03/21 03:46:19;;;;;;;26.15;21.20;;;7.00;99.90;;;;;;6210009;23;20368;-77
2022/03/21 03:48:46;;;;;;;30.02;21.65;;;7.00;99.90;;;;;;6210760;23;20095;-78
2022/03/21 03:51:12;;;;;;;26.75;20.88;;;6.90;99.90;;;;;;6183900;23;20066;-76
2022/03/21 03:53:39;;;;;;;30.05;20.60;;;6.80;99.90;;;;;;6210052;23;20388;-77
2022/03/21 03:56:06;;;;;;;27.88;22.55;;;6.80;99.90;;;;;;6210632;23;20021;-77
2022/03/21 03:58:33;;;;;;;23.85;19.67;;;6.80;99.90;;;;;;6211108;23;20012;-78
2022/03/21 04:00:59;;;;;;;24.93;20.03;;;6.70;99.90;;;;;;6210360;23;20028;-77
2022/03/21 04:06:09;;;;;;;26.45;21.45;;;6.60;99.90;;;;;;6209887;23;20095;-77
2022/03/21 04:08:34;;;;;;;33.47;25.25;;;6.50;99.90;;;;;;6183698;23;20101;-77
2022/03/21 04:11:00;;;;;;;30.02;23.42;;;6.40;99.90;;;;;;6210865;23;20542;-77
2022/03/21 04:13:26;;;;;;;27.92;22.88;;;6.40;99.90;;;;;;6209294;23;20698;-77
2022/03/21 04:15:51;;;;;;;29.75;23.45;;;6.40;99.90;;;;;;6210415;23;20441;-78
2022/03/21 04:18:17;;;;;;;31.48;23.60;;;6.30;99.90;;;;;;6210968;23;20495;-77
2022/03/21 04:20:42;;;;;;;30.98;25.10;;;6.20;99.90;;;;;;6209934;23;20020;-77
2022/03/21 04:23:09;;;;;;;36.10;27.10;;;6.20;99.90;;;;;;6210312;23;20062;-77
2022/03/21 04:25:35;;;;;;;33.67;25.67;;;6.10;99.90;;;;;;6210678;23;20383;-78
2022/03/21 04:28:08;;;;;;;30.13;23.77;;;6.10;99.90;;;;;;6209333;23;20079;-78
2022/03/21 04:30:34;;;;;;;33.83;27.15;;;6.00;99.90;;;;;;6184123;23;20023;-78
2022/03/21 04:32:59;;;;;;;38.13;25.70;;;6.00;99.90;;;;;;6209753;23;20013;-78
2022/03/21 04:35:26;;;;;;;34.05;24.45;;;5.90;99.90;;;;;;6210225;23;20451;-78
2022/03/21 04:37:52;;;;;;;32.25;24.13;;;5.90;99.90;;;;;;6210026;23;20013;-78
2022/03/21 04:40:18;;;;;;;31.30;21.27;;;5.90;99.90;;;;;;6211423;23;20095;-77
2022/03/21 04:42:43;;;;;;;31.25;23.35;;;5.80;99.90;;;;;;6209079;23;20012;-78
2022/03/21 04:45:09;;;;;;;29.17;20.17;;;5.80;99.90;;;;;;6183739;23;20071;-78
2022/03/21 04:47:35;;;;;;;26.45;19.95;;;5.80;99.90;;;;;;6209031;23;20056;-76
2022/03/21 04:50:00;;;;;;;24.85;19.30;;;5.70;99.90;;;;;;6210013;23;20326;-77
2022/03/21 04:52:26;;;;;;;23.27;19.77;;;5.70;99.90;;;;;;6210197;23;20021;-77
2022/03/21 04:54:52;;;;;;;24.67;19.73;;;5.60;99.90;;;;;;6183314;23;20021;-77
2022/03/21 04:57:22;;;;;;;23.67;18.75;;;5.60;99.90;;;;;;6210103;23;20449;-77
2022/03/21 04:59:48;;;;;;;21.42;18.63;;;5.50;99.90;;;;;;6210143;23;20023;-77
2022/03/21 05:02:14;;;;;;;22.60;18.08;;;5.40;99.90;;;;;;6210217;23;20540;-77
2022/03/21 05:04:39;;;;;;;25.00;18.42;;;5.30;99.90;;;;;;6210110;23;20044;-77
2022/03/21 05:07:06;;;;;;;24.05;19.52;;;5.30;99.90;;;;;;6210067;23;20019;-77
2022/03/21 05:09:32;;;;;;;21.30;18.50;;;5.20;99.90;;;;;;6210223;23;20110;-77
2022/03/21 05:11:58;;;;;;;29.10;21.30;;;5.20;99.90;;;;;;6210623;23;20102;-77
2022/03/21 05:14:23;;;;;;;25.02;21.55;;;5.20;99.90;;;;;;6183653;23;20021;-77
2022/03/21 05:16:49;;;;;;;24.23;17.40;;;5.20;99.90;;;;;;6207301;23;20506;-76
2022/03/21 05:19:16;;;;;;;20.85;16.80;;;5.20;99.90;;;;;;6209149;23;20344;-77
2022/03/21 05:21:42;;;;;;;24.35;18.67;;;5.10;99.90;;;;;;6211323;23;20024;-78
2022/03/21 05:32:22;;;;;;;27.38;20.15;;;5.10;99.90;;;;;;6209255;23;20101;-77
2022/03/21 05:37:32;;;;;;;24.65;19.15;;;5.00;99.90;;;;;;6209676;23;20465;-77
2022/03/21 05:42:42;;;;;;;29.13;21.65;;;4.90;99.90;;;;;;6209831;23;20427;-77
2022/03/21 05:45:09;;;;;;;24.77;19.35;;;5.00;99.90;;;;;;6207785;23;20059;-76
2022/03/21 05:48:50;;;;;;;22.48;17.98;;;5.00;99.90;;;;;;6209057;23;20052;-77
2022/03/21 05:50:20;;;;;;;20.92;17.35;;;4.90;99.90;;;;;;6183144;23;20021;-76
2022/03/21 05:52:46;;;;;;;22.20;16.38;;;4.80;99.90;;;;;;6208998;23;20009;-77
2022/03/21 05:55:12;;;;;;;23.75;20.58;;;4.80;99.90;;;;;;6209651;23;20092;-77
2022/03/21 05:57:37;;;;;;;26.75;19.80;;;4.80;99.90;;;;;;6210321;23;20016;-76
2022/03/21 06:00:22;;;;;;;29.77;21.42;;;4.80;99.90;;;;;;6208831;23;20016;-76
2022/03/21 06:02:50;;;;;;;26.40;21.90;;;4.80;99.90;;;;;;6209832;23;20318;-77
2022/03/21 06:05:15;;;;;;;27.83;21.27;;;4.90;99.90;;;;;;6209983;23;20394;-77
2022/03/21 06:07:41;;;;;;;24.20;20.17;;;4.90;99.90;;;;;;6181068;23;20024;-77
2022/03/21 06:10:07;;;;;;;26.63;20.35;;;4.90;99.90;;;;;;6209954;23;20017;-77
2022/03/21 06:12:33;;;;;;;26.35;20.55;;;4.90;99.90;;;;;;6210379;23;20025;-78
2022/03/21 06:14:59;;;;;;;25.67;20.50;;;4.90;99.90;;;;;;6181678;23;20024;-78
2022/03/21 06:17:24;;;;;;;25.40;20.63;;;4.90;99.90;;;;;;6208849;23;20039;-77
2022/03/21 06:19:50;;;;;;;27.15;22.65;;;5.00;99.90;;;;;;6181229;23;20091;-77
2022/03/21 06:22:16;;;;;;;28.52;20.73;;;5.00;99.90;;;;;;6210110;23;20027;-77
2022/03/21 06:24:41;;;;;;;30.80;22.88;;;5.10;99.90;;;;;;6183903;23;20076;-76
2022/03/21 06:27:07;;;;;;;31.48;25.02;;;5.10;99.90;;;;;;6208248;23;20111;-77
2022/03/21 06:29:33;;;;;;;32.67;23.17;;;5.20;99.90;;;;;;6209484;23;20020;-76
2022/03/21 06:31:58;;;;;;;27.95;21.58;;;5.20;99.90;;;;;;6210843;23;20070;-77
2022/03/21 06:34:24;;;;;;;31.38;25.50;;;5.30;99.90;;;;;;6184069;23;20055;-77
2022/03/21 06:36:49;;;;;;;31.02;21.25;;;5.40;99.90;;;;;;6209719;23;20068;-78
2022/03/21 06:39:15;;;;;;;27.48;21.33;;;5.40;99.90;;;;;;6212097;23;20016;-77
2022/03/21 06:41:44;;;;;;;27.95;22.92;;;5.40;99.90;;;;;;6185088;23;20330;-79
2022/03/21 06:44:10;;;;;;;28.13;20.73;;;5.40;99.90;;;;;;6211029;23;20637;-83
2022/03/21 06:46:36;;;;;;;28.38;22.27;;;5.50;99.90;;;;;;6210927;23;20464;-79
2022/03/21 06:49:03;;;;;;;26.95;22.35;;;5.50;99.90;;;;;;6207284;23;20388;-76
2022/03/21 06:51:28;;;;;;;30.67;25.50;;;5.60;99.90;;;;;;6182732;23;20020;-77
2022/03/21 06:53:54;;;;;;;31.20;23.77;;;5.70;99.90;;;;;;6184258;23;20019;-76
2022/03/21 06:56:20;;;;;;;33.30;25.77;;;5.80;99.90;;;;;;6210481;23;20023;-76
2022/03/21 06:58:46;;;;;;;32.17;25.63;;;5.90;99.90;;;;;;6210758;23;20016;-79
2022/03/21 07:01:11;;;;;;;32.00;25.92;;;6.10;99.90;;;;;;6209906;23;20066;-77
2022/03/21 07:03:37;;;;;;;34.05;26.73;;;6.20;99.90;;;;;;6210462;23;20090;-78
2022/03/21 07:06:03;;;;;;;34.60;27.63;;;6.30;99.90;;;;;;6210490;23;20031;-77
2022/03/21 07:08:29;;;;;;;32.47;26.42;;;6.40;99.90;;;;;;6209770;23;20417;-77
2022/03/21 07:10:55;;;;;;;35.75;27.08;;;6.50;99.90;;;;;;6208772;23;20052;-76
2022/03/21 07:13:22;;;;;;;35.33;27.33;;;6.60;99.90;;;;;;6213427;23;20023;-78
2022/03/21 07:15:47;;;;;;;31.77;25.70;;;6.70;99.90;;;;;;6211241;23;20021;-77
2022/03/21 07:18:13;;;;;;;30.63;25.73;;;6.80;99.90;;;;;;6209365;23;20043;-76
2022/03/21 07:20:42;;;;;;;33.10;27.23;;;6.90;99.90;;;;;;6210225;23;20413;-76
2022/03/21 07:23:08;;;;;;;32.28;27.30;;;7.00;99.90;;;;;;6209615;23;20024;-76
2022/03/21 07:25:34;;;;;;;32.00;25.17;;;7.10;99.90;;;;;;6209630;23;20012;-77
2022/03/21 07:28:00;;;;;;;30.80;25.90;;;7.20;99.90;;;;;;6210045;23;20074;-78
2022/03/21 07:30:26;;;;;;;36.97;27.50;;;7.20;99.90;;;;;;6209138;23;20070;-76
2022/03/21 07:32:51;;;;;;;38.30;27.33;;;7.30;99.90;;;;;;6208364;23;20444;-78
2022/03/21 07:35:17;;;;;;;35.05;27.98;;;7.40;99.90;;;;;;6210207;23;20019;-77
2022/03/21 07:37:46;;;;;;;36.65;27.75;;;7.50;99.90;;;;;;6207885;23;20328;-77
2022/03/21 07:40:13;;;;;;;34.50;27.55;;;7.50;99.90;;;;;;6183475;23;20021;-77
2022/03/21 07:42:40;;;;;;;37.35;28.10;;;7.60;99.90;;;;;;6210177;23;20024;-77
2022/03/21 07:47:51;;;;;;;35.05;27.77;;;7.80;99.90;;;;;;6209196;23;20051;-76
2022/03/21 07:50:18;;;;;;;31.40;27.23;;;7.90;99.90;;;;;;6179619;23;20329;-77
2022/03/21 07:52:43;;;;;;;36.03;27.73;;;8.00;99.90;;;;;;6207254;23;20078;-77
2022/03/21 07:55:09;;;;;;;34.63;26.92;;;8.10;99.90;;;;;;6209975;23;20613;-76
2022/03/21 07:57:35;;;;;;;34.63;27.83;;;8.20;99.90;;;;;;6210073;23;20429;-78
2022/03/21 08:00:00;;;;;;;29.25;24.88;;;8.20;99.90;;;;;;6208156;23;20023;-79
2022/03/21 08:02:27;;;;;;;36.50;27.40;;;8.30;99.90;;;;;;6208839;23;20071;-77
2022/03/21 08:04:52;;;;;;;34.38;26.88;;;8.40;99.90;;;;;;6208427;23;20020;-80
2022/03/21 08:07:18;;;;;;;35.60;27.73;;;8.40;99.90;;;;;;6209540;23;20036;-84
2022/03/21 08:09:47;;;;;;;32.42;27.48;;;8.50;99.90;;;;;;6211643;23;20027;-80
2022/03/21 08:12:12;;;;;;;35.65;27.10;;;8.60;99.90;;;;;;6212993;23;20017;-78
2022/03/21 08:14:38;;;;;;;33.08;26.30;;;8.60;99.90;;;;;;6212921;23;20092;-78
2022/03/21 08:17:04;;;;;;;31.92;25.75;;;8.70;99.90;;;;;;6211146;23;20517;-81
2022/03/21 08:19:30;;;;;;;27.67;23.05;;;8.80;99.90;;;;;;6185769;23;20024;-82
2022/03/21 08:21:56;;;;;;;27.23;22.73;;;8.90;99.90;;;;;;6212384;23;20020;-80
2022/03/21 08:24:22;;;;;;;27.98;22.35;;;8.90;99.90;;;;;;6213666;23;20017;-81
2022/03/21 08:26:49;;;;;;;28.77;22.47;;;9.00;99.90;;;;;;6211834;23;20051;-79
2022/03/21 08:29:15;;;;;;;28.20;22.98;;;9.00;99.90;;;;;;6210741;23;20753;-80
2022/03/21 08:31:42;;;;;;;28.58;21.80;;;9.10;99.90;;;;;;6187851;23;20107;-78
2022/03/21 08:34:08;;;;;;;28.42;21.88;;;9.10;99.90;;;;;;6216187;23;20020;-80
2022/03/21 08:36:35;;;;;;;27.67;22.58;;;9.20;99.90;;;;;;6216462;23;20016;-88
2022/03/21 08:39:02;;;;;;;30.27;23.03;;;9.30;99.90;;;;;;6216453;23;20314;-80
2022/03/21 08:41:28;;;;;;;30.83;22.75;;;9.40;99.90;;;;;;6212269;23;20246;-79
2022/03/21 08:43:54;;;;;;;30.80;24.52;;;9.40;99.90;;;;;;6211169;23;20083;-81
2022/03/21 08:46:21;;;;;;;29.75;23.85;;;9.50;99.90;;;;;;6212239;23;20012;-82
2022/03/21 08:51:37;;;;;;;31.45;24.27;;;9.60;99.90;;;;;;6212761;23;20024;-80
2022/03/21 08:54:07;;;;;;;31.67;22.85;;;9.60;99.90;;;;;;6185584;23;20025;-78
2022/03/21 08:56:34;;;;;;;28.17;22.60;;;9.70;99.90;;;;;;6184850;23;20056;-81
2022/03/21 08:58:59;;;;;;;28.80;22.50;;;9.70;99.90;;;;;;6212152;23;20344;-79
2022/03/21 09:01:26;;;;;;;31.20;23.20;;;9.80;99.90;;;;;;6211641;23;20252;-79
2022/03/21 09:03:52;;;;;;;32.60;24.35;;;9.80;99.90;;;;;;6189768;23;20016;-79
2022/03/21 09:06:21;;;;;;;31.30;22.45;;;10.00;99.90;;;;;;6213801;23;20016;-77
2022/03/21 09:08:50;;;;;;;26.70;20.60;;;10.00;99.90;;;;;;6211370;23;20116;-76
2022/03/21 09:11:20;;;;;;;27.40;20.05;;;10.10;99.90;;;;;;6212242;23;20020;-78
2022/03/21 09:13:47;;;;;;;26.05;18.98;;;10.20;99.90;;;;;;6212518;23;20047;-78
2022/03/21 09:16:13;;;;;;;30.90;20.73;;;10.30;99.90;;;;;;6211307;23;20024;-76
2022/03/21 09:18:40;;;;;;;30.08;21.55;;;10.30;99.90;;;;;;6212067;23;20012;-79
2022/03/21 09:21:06;;;;;;;27.20;20.85;;;10.30;99.90;;;;;;6211288;23;20009;-79
2022/03/21 09:23:33;;;;;;;25.23;19.92;;;10.40;99.90;;;;;;6211855;23;20016;-77
2022/03/21 09:26:00;;;;;;;27.65;22.45;;;10.40;99.90;;;;;;6212177;23;20016;-74
2022/03/21 09:28:32;;;;;;;32.10;23.15;;;10.50;99.90;;;;;;6212269;23;20051;-73
2022/03/21 09:30:58;;;;;;;29.52;23.38;;;10.50;99.90;;;;;;6184719;23;20484;-74
2022/03/21 09:33:24;;;;;;;30.05;24.65;;;10.60;99.90;;;;;;6211488;23;20420;-77
2022/03/21 09:35:50;;;;;;;32.90;25.98;;;10.70;99.90;;;;;;6210833;23;20064;-78
2022/03/21 09:38:17;;;;;;;32.70;26.13;;;10.70;99.90;;;;;;6211941;23;20016;-77
2022/03/21 09:40:43;;;;;;;29.40;24.20;;;10.80;99.90;;;;;;6212510;23;20028;-77
2022/03/21 09:43:10;;;;;;;29.83;25.50;;;10.80;99.90;;;;;;6185656;23;20017;-79
2022/03/21 09:45:36;;;;;;;32.92;26.88;;;10.90;99.90;;;;;;6212181;23;20023;-78
2022/03/21 09:48:09;;;;;;;35.55;26.60;;;11.00;99.90;;;;;;6211457;23;20341;-78
2022/03/21 09:50:36;;;;;;;33.08;25.88;;;11.00;99.90;;;;;;6212121;23;20027;-77
2022/03/21 09:53:04;;;;;;;33.95;26.52;;;11.10;99.90;;;;;;6210999;23;20364;-80
2022/03/21 09:55:30;;;;;;;36.05;26.98;;;11.10;99.90;;;;;;6185797;23;20352;-82
2022/03/21 09:57:56;;;;;;;32.67;26.10;;;11.20;99.90;;;;;;6210587;23;20044;-81
2022/03/21 10:00:22;;;;;;;34.53;27.52;;;11.20;99.90;;;;;;6212590;23;20019;-78
2022/03/21 10:02:48;;;;;;;30.67;26.80;;;11.20;99.90;;;;;;6210905;23;20028;-77
2022/03/21 10:05:33;;;;;;;36.17;25.88;;;11.30;99.90;;;;;;6213372;23;20008;-77
2022/03/21 10:08:21;;;;;;;31.73;26.83;;;11.30;99.90;;;;;;6213056;23;20326;-81
2022/03/21 10:11:02;;;;;;;30.20;25.80;;;11.30;99.90;;;;;;6214188;23;20017;-81
2022/03/21 10:13:29;;;;;;;33.67;26.95;;;11.40;99.90;;;;;;6213329;23;20020;-81
2022/03/21 10:16:15;;;;;;;31.15;26.67;;;11.40;99.90;;;;;;6213816;23;20016;-80
2022/03/21 10:19:01;;;;;;;33.83;26.23;;;11.50;99.90;;;;;;6187491;23;20020;-81
2022/03/21 10:21:29;;;;;;;37.28;27.25;;;11.60;99.90;;;;;;6214031;23;20019;-81
2022/03/21 10:24:06;;;;;;;36.42;26.55;;;11.60;99.90;;;;;;6213481;23;20031;-81
2022/03/21 10:26:42;;;;;;;34.47;25.77;;;11.70;99.90;;;;;;6213863;23;20024;-81
2022/03/21 10:29:13;;;;;;;34.42;26.58;;;11.80;99.90;;;;;;6187918;23;20062;-83
2022/03/21 10:31:40;;;;;;;34.22;26.50;;;11.90;99.90;;;;;;6213645;23;20017;-81
2022/03/21 10:34:15;;;;;;;38.17;27.30;;;11.90;99.90;;;;;;6213214;23;20009;-81
2022/03/21 10:37:07;;;;;;;33.10;25.30;;;12.00;99.90;;;;;;6214104;23;20087;-81
2022/03/21 10:39:40;;;;;;;31.85;26.15;;;12.20;99.90;;;;;;6214199;23;20064;-80
2022/03/21 10:42:09;;;;;;;31.63;25.15;;;12.20;99.90;;;;;;6185775;23;20020;-80
2022/03/21 10:44:36;;;;;;;34.42;25.00;;;12.20;99.90;;;;;;6214553;23;20064;-81
2022/03/21 10:47:05;;;;;;;35.30;26.55;;;12.40;99.90;;;;;;6210626;23;20440;-80
2022/03/21 10:49:33;;;;;;;37.60;26.50;;;12.40;99.90;;;;;;6214002;23;20024;-79
2022/03/21 10:51:59;;;;;;;34.40;26.05;;;12.50;99.90;;;;;;6213932;23;20019;-78
2022/03/21 10:54:41;;;;;;;33.03;26.30;;;12.50;99.90;;;;;;6218508;23;20383;-82
2022/03/21 10:57:33;;;;;;;34.75;25.80;;;12.60;99.90;;;;;;6213098;23;20052;-80
2022/03/21 11:00:23;;;;;;;36.63;26.58;;;12.70;99.90;;;;;;6186203;23;20012;-76
2022/03/21 11:03:01;;;;;;;35.53;25.83;;;12.70;99.90;;;;;;6212884;23;20044;-76
2022/03/21 11:05:30;;;;;;;35.60;25.65;;;12.80;98.90;;;;;;6213608;23;20048;-77
2022/03/21 11:07:56;;;;;;;32.20;25.65;;;12.90;98.30;;;;;;6213057;23;20056;-77
2022/03/21 11:10:24;;;;;;;34.30;26.40;;;12.90;97.70;;;;;;6213100;23;20009;-77
2022/03/21 11:12:50;;;;;;;31.73;25.63;;;12.90;99.90;;;;;;6213073;23;20066;-78
2022/03/21 11:15:16;;;;;;;33.05;26.67;;;13.10;99.90;;;;;;6212697;23;20016;-77
2022/03/21 11:17:43;;;;;;;35.65;26.58;;;13.20;98.70;;;;;;6213978;23;20012;-77
2022/03/21 11:20:11;;;;;;;36.92;26.45;;;13.20;98.60;;;;;;6213712;23;20227;-77
2022/03/21 11:22:39;;;;;;;31.63;26.58;;;13.30;95.60;;;;;;6186151;23;20112;-78
2022/03/21 11:25:11;;;;;;;30.73;26.20;;;13.30;95.40;;;;;;6185930;23;20021;-77
2022/03/21 11:27:45;;;;;;;35.30;28.02;;;13.30;96.80;;;;;;6213071;23;20336;-78
2022/03/21 11:30:22;;;;;;;31.73;26.40;;;13.40;95.60;;;;;;6212946;23;20021;-77
2022/03/21 11:33:11;;;;;;;33.60;26.55;;;13.40;95.40;;;;;;6213457;23;20104;-77
2022/03/21 11:35:41;;;;;;;34.70;27.27;;;13.50;96.90;;;;;;6213750;23;20083;-78
2022/03/21 11:38:23;;;;;;;33.53;27.05;;;13.50;95.00;;;;;;6210685;23;20020;-78
2022/03/21 11:40:48;;;;;;;36.58;27.58;;;13.60;92.90;;;;;;6213267;23;20023;-75
2022/03/21 11:43:17;;;;;;;35.13;28.48;;;13.60;94.40;;;;;;6211785;23;20405;-83
2022/03/21 11:45:47;;;;;;;32.33;27.63;;;13.60;90.40;;;;;;6213762;23;20024;-82
2022/03/21 11:48:32;;;;;;;32.53;27.85;;;13.70;91.20;;;;;;6212369;23;20028;-79
2022/03/21 11:51:21;;;;;;;36.38;28.58;;;13.70;92.40;;;;;;6209943;23;20345;-80
2022/03/21 11:53:53;;;;;;;35.88;28.35;;;13.80;93.60;;;;;;6211767;23;20122;-77
2022/03/21 11:56:43;;;;;;;36.65;27.80;;;13.80;87.40;;;;;;6212545;23;20013;-77
2022/03/21 11:59:32;;;;;;;31.75;26.88;;;13.90;86.20;;;;;;6212482;23;20028;-78
2022/03/21 12:02:01;;;;;;;32.80;26.80;;;13.90;89.20;;;;;;6212667;23;20016;-77
2022/03/21 12:04:29;;;;;;;33.33;27.45;;;14.00;86.80;;;;;;6211999;23;20016;-77
2022/03/21 12:06:59;;;;;;;35.05;27.83;;;14.10;83.40;;;;;;6212326;23;20013;-77
2022/03/21 12:09:45;;;;;;;36.03;27.90;;;14.10;82.60;;;;;;6186392;23;20352;-78
2022/03/21 12:12:12;;;;;;;33.05;27.63;;;14.10;84.40;;;;;;6210771;23;20028;-84
2022/03/21 12:14:43;;;;;;;35.65;27.58;;;14.10;87.50;;;;;;6213574;23;20036;-83
2022/03/21 12:17:12;;;;;;;35.22;25.83;;;14.30;87.70;;;;;;6212275;23;20024;-85
2022/03/21 12:22:30;;;;;;;32.47;26.83;;;14.40;85.90;;;;;;6211314;23;20440;-79
2022/03/21 12:25:09;;;;;;;36.15;27.52;;;14.50;87.30;;;;;;6185254;23;20030;-82
2022/03/21 12:27:56;;;;;;;32.63;27.40;;;14.50;80.90;;;;;;6210758;23;20092;-79
2022/03/21 12:30:27;;;;;;;33.27;27.27;;;14.50;79.40;;;;;;6211651;23;20013;-80
2022/03/21 12:33:12;;;;;;;31.55;27.63;;;14.60;79.70;;;;;;6210255;23;20441;-80
2022/03/21 12:35:45;;;;;;;34.58;27.67;;;14.60;77.60;;;;;;6185078;23;20021;-80
2022/03/21 12:38:11;;;;;;;34.42;29.48;;;14.60;82.30;;;;;;6211987;23;20099;-81
2022/03/21 12:40:50;;;;;;;36.75;27.05;;;14.70;85.70;;;;;;6211688;23;20084;-80
2022/03/21 12:43:42;;;;;;;34.38;26.80;;;14.80;87.20;;;;;;6215133;23;20375;-81
2022/03/21 12:46:14;;;;;;;33.00;25.88;;;14.80;80.60;;;;;;6216334;23;20491;-81
2022/03/21 12:48:45;;;;;;;31.85;26.42;;;14.90;81.20;;;;;;6213667;23;20021;-83
2022/03/21 12:51:13;;;;;;;34.58;26.52;;;14.90;82.50;;;;;;6212215;23;20070;-80
2022/03/21 12:53:45;;;;;;;32.83;27.13;;;14.90;81.50;;;;;;6212811;23;20471;-79
2022/03/21 12:56:13;;;;;;;33.28;27.33;;;15.00;80.90;;;;;;6212243;23;20114;-80
2022/03/21 12:58:45;;;;;;;31.83;25.67;;;15.00;80.20;;;;;;6212933;23;20087;-81
2022/03/21 13:01:16;;;;;;;35.47;27.38;;;15.10;77.40;;;;;;6211280;23;20020;-81
2022/03/21 13:03:42;;;;;;;35.00;26.73;;;15.10;79.90;;;;;;6212839;23;20013;-81
2022/03/21 13:11:45;;;;;;;31.40;26.23;;;15.20;80.40;;;;;;6211170;23;20452;-75